Time;durP1;ratioP1;P1;durP2;ratioP2;P2;SDS_P1;SDS_P2;PMS_P1;PMS_P2;Temp;Humidity;BMP_temperature;BMP_pressure;BME280_temperature;BME280_humidity;BME280_pressure;Samples;Min_cycle;Max_cycle;Signal;HPM_P1;HPM_P2
2023/10/23 00:01:23;;;;;;;16.03;5.80;;;;;;;7.19;100.00;101270.72;7370205;19;20415;-40
2023/10/23 00:03:56;;;;;;;11.43;6.00;;;;;;;7.16;100.00;101271.41;7395424;19;20407;-39
2023/10/23 00:06:26;;;;;;;8.30;4.47;;;;;;;7.14;100.00;101268.72;7371035;19;20801;-41
2023/10/23 00:08:55;;;;;;;16.20;6.50;;;;;;;7.11;100.00;101268.56;7395101;19;20411;-38
2023/10/23 00:11:25;;;;;;;9.67;5.00;;;;;;;7.09;100.00;101265.00;7370569;19;20426;-39
2023/10/23 00:13:55;;;;;;;12.80;5.90;;;;;;;7.10;100.00;101271.00;7397081;19;20399;-41
2023/10/23 00:16:25;;;;;;;11.33;5.47;;;;;;;7.07;100.00;101271.69;7371725;19;20423;-38
2023/10/23 00:18:57;;;;;;;9.40;4.97;;;;;;;7.06;100.00;101274.16;7393274;19;20407;-38
2023/10/23 00:21:27;;;;;;;10.93;6.10;;;;;;;7.00;100.00;101270.44;7370632;19;20427;-40
2023/10/23 00:23:56;;;;;;;7.47;4.93;;;;;;;7.00;100.00;101274.66;7395095;19;20428;-39
2023/10/23 00:26:26;;;;;;;13.57;7.07;;;;;;;6.99;100.00;101278.03;7371345;19;20415;-40
2023/10/23 00:28:56;;;;;;;8.20;5.00;;;;;;;6.97;100.00;101275.34;7395080;19;20483;-41
2023/10/23 00:31:25;;;;;;;15.80;7.33;;;;;;;6.93;100.00;101275.06;7370180;19;20444;-42
2023/10/23 00:33:58;;;;;;;17.77;8.60;;;;;;;6.94;100.00;101274.28;7396726;19;20404;-38
2023/10/23 00:36:27;;;;;;;15.20;5.73;;;;;;;6.89;100.00;101264.59;7370769;19;20426;-39
2023/10/23 00:38:57;;;;;;;10.20;5.20;;;;;;;6.83;100.00;101277.00;7395714;19;20410;-38
2023/10/23 00:41:26;;;;;;;12.57;6.23;;;;;;;6.83;100.00;101266.75;7365943;19;20430;-37
2023/10/23 00:43:56;;;;;;;12.37;5.50;;;;;;;6.83;100.00;101269.31;7394449;19;20720;-40
2023/10/23 00:46:27;;;;;;;17.70;8.30;;;;;;;6.87;100.00;101273.88;7371553;19;20767;-39
2023/10/23 00:49:01;;;;;;;23.00;9.73;;;;;;;6.86;100.00;101273.75;7394074;19;20415;-39
2023/10/23 00:51:31;;;;;;;7.37;4.67;;;;;;;6.77;100.00;101271.47;7370114;19;20939;-38
2023/10/23 00:54:01;;;;;;;25.67;8.80;;;;;;;6.83;100.00;101260.75;7394818;19;20487;-40
2023/10/23 00:56:31;;;;;;;24.60;8.33;;;;;;;6.81;100.00;101257.22;7370830;19;20546;-38
2023/10/23 00:59:00;;;;;;;11.90;6.90;;;;;;;6.77;100.00;101258.66;7394417;19;20424;-40
2023/10/23 01:01:31;;;;;;;14.50;6.47;;;;;;;6.73;100.00;101255.00;7369865;19;20418;-38
2023/10/23 01:04:04;;;;;;;11.47;6.67;;;;;;;6.73;100.00;101272.09;7394610;19;20404;-39
2023/10/23 01:06:34;;;;;;;11.83;5.63;;;;;;;6.71;100.00;101266.84;7370352;19;20423;-40
2023/10/23 01:09:04;;;;;;;11.50;5.80;;;;;;;6.72;100.00;101253.22;7387415;19;20408;-41
2023/10/23 01:11:33;;;;;;;10.23;5.90;;;;;;;6.67;100.00;101274.25;7369316;19;20465;-39
2023/10/23 01:14:03;;;;;;;6.83;5.10;;;;;;;6.65;100.00;101274.13;7394183;19;20399;-39
2023/10/23 01:16:32;;;;;;;10.97;6.30;;;;;;;6.62;100.00;101267.13;7369715;19;20908;-40
2023/10/23 01:19:05;;;;;;;12.87;7.27;;;;;;;6.66;100.00;101262.22;7394148;19;20407;-40
2023/10/23 01:21:35;;;;;;;9.63;5.80;;;;;;;6.63;100.00;101265.47;7369430;19;20432;-39
2023/10/23 01:24:08;;;;;;;15.70;8.30;;;;;;;6.62;100.00;101254.31;7394024;19;20478;-38
2023/10/23 01:26:40;;;;;;;13.33;7.20;;;;;;;6.60;100.00;101262.69;7371204;19;20414;-39
2023/10/23 01:29:10;;;;;;;12.63;5.97;;;;;;;6.59;100.00;101266.03;7394208;19;20482;-38
2023/10/23 01:31:39;;;;;;;12.80;6.83;;;;;;;6.58;100.00;101254.91;7369758;19;20475;-42
2023/10/23 01:34:09;;;;;;;17.27;8.20;;;;;;;6.54;100.00;101247.81;7395269;19;20950;-39
2023/10/23 01:36:39;;;;;;;16.60;8.20;;;;;;;6.55;100.00;101231.63;7370084;19;20435;-39
2023/10/23 01:39:09;;;;;;;17.53;6.37;;;;;;;6.52;100.00;101231.44;7393518;19;20411;-40
2023/10/23 01:41:41;;;;;;;14.47;7.77;;;;;;;6.53;100.00;101219.47;7367111;19;20482;-39
2023/10/23 01:44:11;;;;;;;20.70;7.53;;;;;;;6.52;100.00;101213.50;7393664;19;20415;-39
2023/10/23 01:46:41;;;;;;;14.40;8.00;;;;;;;6.48;100.00;101207.25;7370033;19;20510;-39
2023/10/23 01:49:10;;;;;;;15.93;7.77;;;;;;;6.45;100.00;101206.16;7395339;19;20410;-41
2023/10/23 01:51:41;;;;;;;14.20;7.63;;;;;;;6.42;100.00;101203.41;7367872;19;20581;-41
2023/10/23 01:54:10;;;;;;;13.63;6.60;;;;;;;6.40;100.00;101202.44;7393492;19;20412;-40
2023/10/23 01:56:43;;;;;;;11.47;7.10;;;;;;;6.46;100.00;101190.00;7369914;19;20506;-41
2023/10/23 01:59:12;;;;;;;13.30;7.83;;;;;;;6.45;100.00;101181.44;7392914;19;20978;-39
2023/10/23 02:01:42;;;;;;;14.33;7.37;;;;;;;6.44;100.00;101176.19;7368704;19;20903;-39
2023/10/23 02:04:11;;;;;;;12.20;6.90;;;;;;;6.38;100.00;101175.78;7392614;19;20943;-38
2023/10/23 02:06:41;;;;;;;14.80;7.23;;;;;;;6.48;100.00;101176.47;7367928;19;20427;-40
2023/10/23 02:09:12;;;;;;;12.00;6.80;;;;;;;6.47;100.00;101168.72;7389279;19;20784;-38
2023/10/23 02:11:44;;;;;;;15.83;6.17;;;;;;;6.44;100.00;101164.28;7367868;19;20458;-39
2023/10/23 02:14:14;;;;;;;13.53;8.40;;;;;;;6.42;100.00;101165.81;7392797;19;20483;-38
2023/10/23 02:16:44;;;;;;;13.93;7.10;;;;;;;6.50;100.00;101178.28;7369741;19;20519;-40
2023/10/23 02:19:14;;;;;;;17.43;8.60;;;;;;;6.49;100.00;101177.38;7392169;19;20775;-40
2023/10/23 02:21:49;;;;;;;22.40;9.50;;;;;;;6.44;100.00;101183.88;7367534;19;21006;-41
2023/10/23 02:24:19;;;;;;;34.80;14.60;;;;;;;6.41;100.00;101183.69;7390401;19;20407;-38
2023/10/23 02:26:51;;;;;;;18.80;9.93;;;;;;;6.40;100.00;101180.22;7368802;19;20447;-38
2023/10/23 02:29:21;;;;;;;21.17;10.27;;;;;;;6.39;100.00;101186.16;7390936;19;20474;-38
2023/10/23 02:31:50;;;;;;;19.20;9.80;;;;;;;6.46;100.00;101195.16;7367461;19;20471;-38
2023/10/23 02:34:20;;;;;;;12.30;8.00;;;;;;;6.45;100.00;101185.66;7390472;19;20404;-40
2023/10/23 02:36:50;;;;;;;29.63;13.10;;;;;;;6.48;100.00;101191.88;7368717;19;20591;-38
2023/10/23 02:39:19;;;;;;;50.13;20.97;;;;;;;6.50;100.00;101188.53;7390326;19;20400;-38
2023/10/23 02:41:51;;;;;;;90.93;32.93;;;;;;;6.51;100.00;101201.44;7365094;19;20463;-38
2023/10/23 02:44:21;;;;;;;14.63;8.90;;;;;;;6.51;100.00;101200.56;7390243;19;20487;-43
2023/10/23 02:46:51;;;;;;;15.43;8.10;;;;;;;6.49;100.00;101197.88;7367950;19;20423;-40
2023/10/23 02:49:21;;;;;;;12.03;7.20;;;;;;;6.48;100.00;101204.69;7390100;19;20437;-39
2023/10/23 02:51:50;;;;;;;14.37;8.00;;;;;;;6.41;100.00;101210.19;7366589;19;20552;-39
2023/10/23 02:54:20;;;;;;;20.47;11.13;;;;;;;6.43;100.00;101228.25;7393687;19;20407;-40
2023/10/23 02:56:52;;;;;;;16.43;9.17;;;;;;;6.33;100.00;101239.56;7368074;19;20814;-40
2023/10/23 02:59:23;;;;;;;15.07;8.83;;;;;;;6.39;100.00;101246.75;7392083;19;20437;-39
2023/10/23 03:01:52;;;;;;;13.83;7.83;;;;;;;6.34;100.00;101251.59;7366469;19;20463;-40
2023/10/23 03:04:22;;;;;;;12.57;7.50;;;;;;;6.28;100.00;101257.22;7392075;19;20411;-43
2023/10/23 03:06:52;;;;;;;19.00;10.37;;;;;;;6.33;100.00;101258.41;7374650;19;20426;-38
2023/10/23 03:09:21;;;;;;;14.83;8.10;;;;;;;6.33;100.00;101267.75;7395997;19;20479;-39
2023/10/23 03:11:54;;;;;;;21.43;11.93;;;;;;;6.33;100.00;101258.41;7373307;19;20471;-38
2023/10/23 03:14:23;;;;;;;12.33;7.77;;;;;;;6.30;100.00;101265.88;7396482;19;20740;-39
2023/10/23 03:16:53;;;;;;;11.80;7.40;;;;;;;6.34;100.00;101256.72;7374622;19;20415;-38
2023/10/23 03:19:25;;;;;;;15.57;7.60;;;;;;;6.34;100.00;101252.50;7395969;19;20754;-42
2023/10/23 03:21:55;;;;;;;33.57;12.40;;;;;;;6.33;100.00;101244.69;7372872;19;20466;-39
2023/10/23 03:24:25;;;;;;;16.03;8.10;;;;;;;6.28;100.00;101239.28;7396016;19;20421;-39
2023/10/23 03:26:57;;;;;;;17.50;9.50;;;;;;;6.28;100.00;101243.50;7374187;19;20420;-42
2023/10/23 03:29:27;;;;;;;14.50;8.27;;;;;;;6.21;100.00;101243.06;7395801;19;20406;-38
2023/10/23 03:31:56;;;;;;;24.33;10.17;;;;;;;6.20;100.00;101243.88;7373467;19;20462;-39
2023/10/23 03:34:26;;;;;;;16.27;8.90;;;;;;;6.20;100.00;101235.28;7395348;19;20970;-40
2023/10/23 03:36:56;;;;;;;22.10;10.07;;;;;;;6.25;100.00;101238.19;7373706;19;20951;-39
2023/10/23 03:39:25;;;;;;;16.30;8.20;;;;;;;6.18;100.00;101227.50;7395254;19;21069;-39
2023/10/23 03:41:58;;;;;;;19.63;9.03;;;;;;;6.18;100.00;101231.75;7371112;19;20484;-41
2023/10/23 03:44:27;;;;;;;18.60;8.97;;;;;;;6.17;100.00;101240.22;7396721;19;20424;-39
2023/10/23 03:46:57;;;;;;;25.20;10.17;;;;;;;6.12;100.00;101228.75;7373501;19;20922;-40
2023/10/23 03:49:26;;;;;;;23.83;10.93;;;;;;;6.08;100.00;101227.66;7397670;19;20417;-38
2023/10/23 03:51:56;;;;;;;24.27;11.93;;;;;;;6.11;100.00;101224.44;7372687;19;20908;-41
2023/10/23 03:54:26;;;;;;;14.10;8.40;;;;;;;6.04;100.00;101225.69;7397034;19;20969;-44
2023/10/23 03:56:58;;;;;;;21.27;10.47;;;;;;;6.07;100.00;101229.31;7373822;19;20443;-43
2023/10/23 03:59:27;;;;;;;18.03;9.30;;;;;;;6.01;100.00;101218.63;7395280;19;20410;-41
2023/10/23 04:01:57;;;;;;;25.33;12.10;;;;;;;6.06;100.00;101214.75;7371478;19;20518;-40
2023/10/23 04:04:27;;;;;;;19.70;10.03;;;;;;;6.04;100.00;101208.63;7394816;19;20403;-39
2023/10/23 04:06:59;;;;;;;17.50;9.07;;;;;;;5.99;100.00;101214.22;7372842;19;20421;-42
2023/10/23 04:09:31;;;;;;;18.67;10.23;;;;;;;5.96;100.00;101209.78;7397117;19;20399;-40
2023/10/23 04:12:03;;;;;;;16.30;9.47;;;;;;;5.95;100.00;101213.13;7371817;19;20466;-39
2023/10/23 04:14:33;;;;;;;16.07;8.60;;;;;;;5.92;100.00;101207.78;7397383;19;20418;-41
2023/10/23 04:17:04;;;;;;;24.50;12.53;;;;;;;5.93;100.00;101212.13;7370172;19;20439;-44
2023/10/23 04:19:33;;;;;;;23.83;12.03;;;;;;;5.96;100.00;101209.78;7396471;19;20419;-40
2023/10/23 04:22:03;;;;;;;17.40;10.43;;;;;;;5.89;100.00;101217.84;7368627;19;20546;-41
2023/10/23 04:24:32;;;;;;;16.70;9.23;;;;;;;5.89;100.00;101210.16;7395179;19;20415;-39
2023/10/23 04:27:05;;;;;;;19.13;10.00;;;;;;;5.89;100.00;101213.56;7372654;19;20426;-43
2023/10/23 04:29:35;;;;;;;26.37;12.40;;;;;;;5.84;100.00;101214.94;7397425;19;20410;-41
2023/10/23 04:32:04;;;;;;;22.47;10.47;;;;;;;5.88;100.00;101208.34;7371454;19;20579;-38
2023/10/23 04:34:34;;;;;;;21.60;10.70;;;;;;;5.78;100.00;101212.84;7394438;19;20408;-39
2023/10/23 04:37:03;;;;;;;26.13;12.80;;;;;;;5.83;100.00;101217.41;7372441;19;20423;-40
2023/10/23 04:39:33;;;;;;;19.83;10.27;;;;;;;5.83;100.00;101212.28;7394408;19;20495;-40
2023/10/23 04:42:06;;;;;;;21.57;10.30;;;;;;;5.79;100.00;101222.31;7368365;19;20541;-39
2023/10/23 04:44:36;;;;;;;22.20;11.53;;;;;;;5.76;100.00;101221.22;7394722;19;20416;-42
2023/10/23 04:47:06;;;;;;;37.17;14.63;;;;;;;5.77;100.00;101229.00;7372477;19;20435;-41
2023/10/23 04:49:36;;;;;;;35.50;15.50;;;;;;;5.75;100.00;101233.13;7394284;19;20825;-42
2023/10/23 04:52:06;;;;;;;18.17;9.87;;;;;;;5.77;100.00;101229.00;7370600;19;20459;-40
2023/10/23 04:54:36;;;;;;;17.77;9.43;;;;;;;5.75;100.00;101235.66;7394387;19;20404;-41
2023/10/23 04:57:09;;;;;;;23.57;11.87;;;;;;;5.71;100.00;101228.59;7370157;19;20423;-39
2023/10/23 04:59:39;;;;;;;25.43;11.23;;;;;;;5.74;100.00;101225.34;7394276;19;20407;-38
2023/10/23 05:02:09;;;;;;;18.40;11.27;;;;;;;5.69;100.00;101230.13;7369592;19;21187;-39
2023/10/23 05:04:38;;;;;;;25.80;11.33;;;;;;;5.68;100.00;101230.91;7393886;19;20412;-41
2023/10/23 05:07:08;;;;;;;26.23;12.30;;;;;;;5.67;100.00;101224.03;7371066;19;20427;-40
2023/10/23 05:09:37;;;;;;;20.97;11.00;;;;;;;5.63;100.00;101234.81;7394157;19;20495;-39
2023/10/23 05:12:10;;;;;;;23.27;11.13;;;;;;;5.63;100.00;101230.59;7369850;19;20916;-38
2023/10/23 05:14:40;;;;;;;33.67;15.20;;;;;;;5.65;100.00;101223.03;7394144;19;20424;-39
2023/10/23 05:17:10;;;;;;;22.83;10.70;;;;;;;5.65;100.00;101231.59;7370162;19;21061;-39
2023/10/23 05:19:39;;;;;;;26.23;12.90;;;;;;;5.66;100.00;101233.34;7393868;19;20761;-39
2023/10/23 05:22:09;;;;;;;33.67;15.13;;;;;;;5.63;100.00;101245.06;7369281;19;21058;-38
2023/10/23 05:24:39;;;;;;;24.97;11.87;;;;;;;5.61;100.00;101241.53;7393740;19;20549;-41
2023/10/23 05:27:11;;;;;;;17.80;10.97;;;;;;;5.58;100.00;101255.00;7369935;19;20463;-39
2023/10/23 05:29:40;;;;;;;23.70;10.70;;;;;;;5.57;100.00;101263.47;7395603;19;20407;-38
2023/10/23 05:32:10;;;;;;;20.47;10.13;;;;;;;5.58;100.00;101262.66;7370097;19;20483;-39
2023/10/23 05:34:40;;;;;;;29.30;13.50;;;;;;;5.57;100.00;101257.44;7393686;19;20436;-39
2023/10/23 05:37:09;;;;;;;21.57;11.63;;;;;;;5.60;100.00;101260.22;7370463;19;20507;-39
2023/10/23 05:39:39;;;;;;;48.83;21.07;;;;;;;5.60;100.00;101260.22;7393179;19;20412;-40
2023/10/23 05:42:12;;;;;;;33.17;14.57;;;;;;;5.58;100.00;101257.56;7368291;19;20859;-45
2023/10/23 05:44:41;;;;;;;31.07;13.50;;;;;;;5.54;100.00;101255.56;7392944;19;20410;-39
2023/10/23 05:47:11;;;;;;;27.00;11.43;;;;;;;5.58;100.00;101266.91;7369493;19;20439;-39
2023/10/23 05:49:40;;;;;;;20.20;11.03;;;;;;;5.44;100.00;101269.38;7392956;19;20827;-39
2023/10/23 05:52:10;;;;;;;27.10;12.53;;;;;;;5.46;100.00;101269.47;7368931;19;20459;-39
2023/10/23 05:54:39;;;;;;;31.07;14.57;;;;;;;5.47;100.00;101269.59;7391423;19;20403;-39
2023/10/23 05:57:12;;;;;;;21.70;11.03;;;;;;;5.44;100.00;101278.72;7363452;19;20415;-42
2023/10/23 05:59:42;;;;;;;18.43;10.60;;;;;;;5.41;100.00;101276.84;7391582;19;20419;-39
2023/10/23 06:02:12;;;;;;;19.50;11.27;;;;;;;5.40;100.00;101282.75;7368123;19;20462;-40
2023/10/23 06:04:45;;;;;;;19.23;10.30;;;;;;;5.43;100.00;101288.06;7392041;19;20411;-41
2023/10/23 06:07:15;;;;;;;21.43;11.50;;;;;;;5.43;100.00;101292.31;7370134;19;20978;-40
2023/10/23 06:09:45;;;;;;;21.37;10.87;;;;;;;5.46;100.00;101303.66;7393943;19;20995;-39
2023/10/23 06:12:17;;;;;;;21.13;11.20;;;;;;;5.40;100.00;101304.09;7361159;19;20447;-43
2023/10/23 06:14:47;;;;;;;26.30;12.80;;;;;;;5.42;100.00;101313.56;7381986;19;20411;-40
2023/10/23 06:17:16;;;;;;;22.70;11.83;;;;;;;5.41;100.00;101317.78;7360579;19;20438;-39
2023/10/23 06:19:46;;;;;;;20.10;10.83;;;;;;;5.38;100.00;101327.78;7383571;19;20482;-38
2023/10/23 06:22:15;;;;;;;40.07;17.40;;;;;;;5.46;100.00;101329.25;7360013;19;20530;-40
2023/10/23 06:24:47;;;;;;;22.20;10.70;;;;;;;5.42;100.00;101329.81;7385605;19;20975;-41
2023/10/23 06:27:19;;;;;;;21.03;11.40;;;;;;;5.42;100.00;101332.38;7361724;19;20504;-39
2023/10/23 06:29:51;;;;;;;26.63;11.63;;;;;;;5.48;100.00;101332.81;7384299;19;20417;-39
2023/10/23 06:32:21;;;;;;;24.40;12.07;;;;;;;5.47;100.00;101331.03;7360827;19;20466;-38
2023/10/23 06:34:53;;;;;;;33.60;15.10;;;;;;;5.48;100.00;101330.25;7386364;19;20500;-40
2023/10/23 06:37:23;;;;;;;27.30;12.97;;;;;;;5.48;100.00;101331.94;7362369;19;20490;-40
2023/10/23 06:39:52;;;;;;;23.63;11.20;;;;;;;5.50;100.00;101333.78;7388276;19;20479;-39
2023/10/23 06:42:27;;;;;;;22.53;10.87;;;;;;;5.50;100.00;101318.44;7365610;19;20439;-40
2023/10/23 06:44:57;;;;;;;32.53;14.57;;;;;;;5.57;100.00;101326.56;7390365;19;20410;-38
2023/10/23 06:47:27;;;;;;;26.50;11.87;;;;;;;5.55;100.00;101331.59;7367091;19;20411;-39
2023/10/23 06:49:56;;;;;;;29.20;12.83;;;;;;;5.57;100.00;101336.78;7391251;19;21044;-38
2023/10/23 06:52:26;;;;;;;22.63;12.30;;;;;;;5.61;100.00;101342.25;7366003;19;20443;-41
2023/10/23 06:54:55;;;;;;;25.80;11.70;;;;;;;5.64;100.00;101342.47;7390024;19;20414;-42
2023/10/23 06:57:27;;;;;;;23.13;10.30;;;;;;;5.69;100.00;101345.34;7369185;19;20546;-41
2023/10/23 06:59:57;;;;;;;23.47;11.10;;;;;;;5.69;100.00;101347.91;7388695;19;20407;-38
2023/10/23 07:02:27;;;;;;;32.20;12.10;;;;;;;5.71;100.00;101346.38;7364821;19;20439;-41
2023/10/23 07:04:56;;;;;;;28.90;12.37;;;;;;;5.79;100.00;101359.69;7388031;19;20403;-39
2023/10/23 07:07:28;;;;;;;52.40;21.80;;;;;;;5.84;100.00;101354.91;7363213;19;20985;-39
2023/10/23 07:10:03;;;;;;;35.20;14.73;;;;;;;5.86;100.00;101356.81;7388827;19;20932;-40
2023/10/23 07:12:35;;;;;;;30.87;12.70;;;;;;;5.94;100.00;101352.19;7363679;19;21029;-39
2023/10/23 07:15:06;;;;;;;59.23;22.17;;;;;;;6.02;100.00;101346.00;7388397;19;20408;-39
2023/10/23 07:17:35;;;;;;;37.67;15.97;;;;;;;6.03;100.00;101355.47;7367400;19;20422;-39
2023/10/23 07:20:06;;;;;;;40.53;17.13;;;;;;;6.14;100.00;101348.50;7389760;19;20411;-39
2023/10/23 07:22:36;;;;;;;30.77;13.07;;;;;;;6.16;100.00;101346.94;7366136;19;20465;-42
2023/10/23 07:25:07;;;;;;;36.20;15.23;;;;;;;6.22;100.00;101352.47;7392536;19;20486;-39
2023/10/23 07:27:39;;;;;;;21.20;11.53;;;;;;;6.22;100.00;101365.28;7365171;19;20524;-42
2023/10/23 07:30:11;;;;;;;35.63;13.40;;;;;;;6.30;100.00;101370.97;7389925;19;20403;-40
2023/10/23 07:32:38;;;;;;;65.93;28.17;;;;;;;6.38;100.00;101378.28;7366113;19;20435;-42
2023/10/23 07:35:08;;;;;;;32.03;13.43;;;;;;;6.35;100.00;101392.69;7389488;19;20403;-37
2023/10/23 07:37:38;;;;;;;31.50;14.67;;;;;;;6.41;100.00;101388.75;7367249;19;20426;-40
2023/10/23 07:40:09;;;;;;;26.37;13.00;;;;;;;6.48;100.00;101396.97;7388275;19;20411;-38
2023/10/23 07:42:41;;;;;;;42.57;18.00;;;;;;;6.53;100.00;101415.25;7365551;19;20467;-41
2023/10/23 07:45:11;;;;;;;26.93;12.80;;;;;;;6.58;100.00;101423.25;7390252;19;20412;-39
2023/10/23 07:47:41;;;;;;;23.40;11.03;;;;;;;6.64;100.00;101433.03;7365462;19;20510;-41
2023/10/23 07:50:11;;;;;;;31.53;12.47;;;;;;;6.74;100.00;101440.56;7386544;19;20949;-41
2023/10/23 07:52:41;;;;;;;26.70;12.10;;;;;;;6.85;100.00;101447.31;7365492;19;20450;-40
2023/10/23 07:55:11;;;;;;;27.40;12.80;;;;;;;6.90;100.00;101455.31;7388587;19;20471;-39
2023/10/23 07:57:43;;;;;;;25.63;12.10;;;;;;;7.00;100.00;101464.53;7366383;19;20450;-39
2023/10/23 08:00:14;;;;;;;25.13;12.30;;;;;;;7.05;100.00;101478.56;7389639;19;20403;-39
2023/10/23 08:02:43;;;;;;;38.53;14.07;;;;;;;7.13;100.00;101477.41;7366534;19;21165;-40
2023/10/23 08:05:13;;;;;;;32.77;14.93;;;;;;;7.20;100.00;101493.22;7391224;19;20421;-39
2023/10/23 08:07:43;;;;;;;21.20;10.83;;;;;;;7.24;100.00;101511.47;7366238;19;20447;-41
2023/10/23 08:10:13;;;;;;;20.30;10.53;;;;;;;7.31;100.00;101533.34;7388991;19;20490;-38
2023/10/23 08:12:46;;;;;;;24.80;9.67;;;;;;;7.34;100.00;101564.34;7366192;19;20461;-39
2023/10/23 08:15:16;;;;;;;21.50;10.87;;;;;;;7.45;100.00;101589.84;7366525;19;20428;-39
2023/10/23 08:17:46;;;;;;;23.17;10.37;;;;;;;7.53;100.00;101627.22;7386444;19;20479;-41
2023/10/23 08:20:17;;;;;;;24.33;10.70;;;;;;;7.56;100.00;101640.28;7366189;19;20407;-39
2023/10/23 08:22:46;;;;;;;39.63;15.30;;;;;;;7.69;100.00;101659.97;7388536;19;20439;-41
2023/10/23 08:25:16;;;;;;;36.27;15.60;;;;;;;7.82;100.00;101678.03;7365580;19;20395;-39
2023/10/23 08:27:49;;;;;;;20.10;11.00;;;;;;;7.88;100.00;101687.81;7384432;19;20408;-40
2023/10/23 08:30:18;;;;;;;19.53;9.70;;;;;;;7.81;100.00;101696.78;7363569;19;20413;-39
2023/10/23 08:32:48;;;;;;;22.00;10.00;;;;;;;7.90;100.00;101700.78;7385689;19;20820;-39
2023/10/23 08:35:22;;;;;;;20.50;9.43;;;;;;;8.03;100.00;101707.63;7363754;19;21077;-40
2023/10/23 08:37:51;;;;;;;16.83;8.60;;;;;;;8.08;100.00;101698.53;7383220;19;20419;-39
2023/10/23 08:40:21;;;;;;;15.00;7.40;;;;;;;8.02;100.00;101698.13;7364480;19;20418;-38
2023/10/23 08:42:53;;;;;;;20.80;9.77;;;;;;;8.17;100.00;101681.19;7380349;19;20459;-38
2023/10/23 08:45:23;;;;;;;19.13;7.50;;;;;;;8.20;100.00;101653.09;7363153;19;20407;-38
2023/10/23 08:47:53;;;;;;;18.20;8.20;;;;;;;8.23;100.00;101627.59;7384995;19;20404;-39
2023/10/23 08:50:23;;;;;;;24.70;10.97;;;;;;;8.30;100.00;101594.56;7361867;19;20959;-39
2023/10/23 08:52:59;;;;;;;20.53;9.40;;;;;;;8.34;100.00;101570.81;7384511;19;20866;-38
2023/10/23 08:55:31;;;;;;;23.13;10.30;;;;;;;8.36;100.00;101549.53;7364109;19;20411;-39
2023/10/23 08:58:06;;;;;;;17.17;9.33;;;;;;;8.37;100.00;101514.44;7384990;19;20407;-39
2023/10/23 09:00:36;;;;;;;23.53;9.00;;;;;;;8.57;100.00;101486.53;7362297;19;20431;-39
2023/10/23 09:03:07;;;;;;;16.67;8.10;;;;;;;8.58;100.00;101503.75;7382373;19;20607;-39
2023/10/23 09:05:37;;;;;;;15.10;7.47;;;;;;;8.68;100.00;101479.47;7364582;19;20418;-38
2023/10/23 09:08:07;;;;;;;31.33;12.87;;;;;;;8.79;100.00;101457.84;7383834;19;20432;-39
2023/10/23 09:11:01;;;;;;;13.10;7.20;;;;;;;8.85;100.00;101406.75;7361741;19;20447;-39
2023/10/23 09:13:38;;;;;;;13.43;6.90;;;;;;;8.97;100.00;101360.25;7384549;19;20451;-41
2023/10/23 09:16:08;;;;;;;27.20;11.27;;;;;;;8.98;100.00;101320.84;7364099;19;20857;-39
2023/10/23 09:18:46;;;;;;;25.33;10.57;;;;;;;9.15;100.00;101290.03;7384619;19;20795;-38
2023/10/23 09:21:16;;;;;;;13.93;7.50;;;;;;;9.29;100.00;101258.22;7364509;19;20851;-41
2023/10/23 09:23:53;;;;;;;13.40;6.50;;;;;;;9.29;100.00;101258.22;7384162;19;20431;-39
2023/10/23 09:26:24;;;;;;;18.17;7.83;;;;;;;9.37;100.00;101206.22;7364224;19;20506;-38
2023/10/23 09:28:56;;;;;;;13.80;6.03;;;;;;;9.54;100.00;101150.50;7386066;19;20411;-39
2023/10/23 09:31:26;;;;;;;31.23;13.17;;;;;;;9.64;100.00;101124.38;7363828;19;20502;-39
2023/10/23 09:33:56;;;;;;;11.43;5.03;;;;;;;9.69;100.00;101111.75;7386562;19;21559;-38
2023/10/23 09:36:28;;;;;;;17.23;7.00;;;;;;;9.76;100.00;101080.34;7364096;19;20431;-40
2023/10/23 09:38:59;;;;;;;9.10;4.33;;;;;;;9.83;100.00;101032.53;7385467;19;20510;-39
2023/10/23 09:41:30;;;;;;;16.60;6.70;;;;;;;9.92;100.00;100993.44;7360465;19;21356;-39
2023/10/23 09:44:03;;;;;;;8.57;3.60;;;;;;;9.97;100.00;100982.56;7385215;19;20435;-39
2023/10/23 09:46:33;;;;;;;63.23;24.07;;;;;;;10.07;100.00;100962.38;7363448;19;20426;-39
2023/10/23 09:49:04;;;;;;;9.60;3.77;;;;;;;10.03;100.00;100952.72;7385219;19;20422;-39
2023/10/23 09:51:38;;;;;;;32.90;11.43;;;;;;;10.19;100.00;100955.22;7363057;19;20438;-38
2023/10/23 09:54:17;;;;;;;5.53;2.70;;;;;;;10.10;100.00;100947.91;7385108;19;20411;-39
2023/10/23 09:56:50;;;;;;;15.53;5.03;;;;;;;10.18;100.00;100935.41;7360499;19;20427;-40
2023/10/23 09:59:26;;;;;;;17.00;3.63;;;;;;;10.26;100.00;100940.91;7384400;19;20407;-39
2023/10/23 10:02:04;;;;;;;45.60;15.87;;;;;;;10.39;100.00;100940.66;7362422;19;20474;-38
2023/10/23 10:04:39;;;;;;;10.00;4.40;;;;;;;10.48;100.00;100958.28;7383785;19;20986;-38
2023/10/23 10:07:12;;;;;;;6.73;3.57;;;;;;;10.52;100.00;100943.81;7359939;19;20448;-39
2023/10/23 10:09:43;;;;;;;8.40;2.57;;;;;;;10.69;100.00;100946.25;7385407;19;20404;-38
2023/10/23 10:12:12;;;;;;;7.00;2.70;;;;;;;10.77;100.00;100950.09;7361635;19;20443;-39
2023/10/23 10:14:46;;;;;;;5.63;2.27;;;;;;;10.64;100.00;100957.28;7389727;19;20407;-38
2023/10/23 10:17:19;;;;;;;10.90;2.90;;;;;;;10.76;100.00;100949.19;7369865;19;20479;-38
2023/10/23 10:19:49;;;;;;;6.33;2.23;;;;;;;10.86;100.00;100953.06;7385887;19;20407;-39
2023/10/23 10:22:22;;;;;;;15.70;6.13;;;;;;;10.89;100.00;100960.94;7367726;19;20518;-38
2023/10/23 10:24:52;;;;;;;25.80;8.93;;;;;;;10.99;100.00;100959.66;7395639;19;20403;-41
2023/10/23 10:27:22;;;;;;;11.60;4.93;;;;;;;10.92;100.00;100961.06;7370826;19;20439;-40
2023/10/23 10:29:55;;;;;;;20.87;6.73;;;;;;;11.10;100.00;100960.09;7392457;19;20420;-41
2023/10/23 10:32:26;;;;;;;12.60;5.70;;;;;;;11.18;100.00;100958.72;7366667;19;20462;-39
2023/10/23 10:34:56;;;;;;;11.70;4.40;;;;;;;11.15;100.00;100965.44;7391053;19;20403;-39
2023/10/23 10:37:28;;;;;;;6.27;2.70;;;;;;;11.20;100.00;100962.25;7365779;19;20428;-38
2023/10/23 10:40:10;;;;;;;38.10;14.73;;;;;;;11.37;100.00;100959.50;7389503;19;20411;-37
2023/10/23 10:42:41;;;;;;;22.93;9.37;;;;;;;11.46;100.00;100959.00;7368401;19;20439;-39
2023/10/23 10:45:17;;;;;;;8.93;4.20;;;;;;;11.46;100.00;100959.88;7389978;19;20498;-42
2023/10/23 10:47:52;;;;;;;7.13;1.80;;;;;;;11.54;100.00;100959.31;7370262;19;20430;-40
2023/10/23 10:50:36;;;;;;;8.20;2.17;;;;;;;11.63;100.00;100962.25;7367044;19;20411;-44
2023/10/23 10:53:07;;;;;;;8.17;4.07;;;;;;;11.69;100.00;100957.34;7388103;19;20427;-41
2023/10/23 10:55:38;;;;;;;7.17;2.83;;;;;;;11.83;100.00;100949.25;7368305;19;20428;-39
2023/10/23 10:58:08;;;;;;;5.00;2.87;;;;;;;11.91;100.00;100947.88;7389526;19;20474;-39
2023/10/23 11:00:40;;;;;;;10.83;2.70;;;;;;;11.96;100.00;100946.34;7369534;19;20459;-39
2023/10/23 11:03:10;;;;;;;3.50;1.60;;;;;;;12.04;100.00;100958.72;7388097;19;20446;-39
2023/10/23 11:05:40;;;;;;;26.13;10.60;;;;;;;11.78;100.00;100956.84;7366751;19;20391;-40
2023/10/23 11:08:09;;;;;;;12.67;4.87;;;;;;;11.82;100.00;100943.22;7390063;19;20399;-39
2023/10/23 11:10:39;;;;;;;6.37;2.40;;;;;;;11.90;100.00;100951.28;7368682;19;20428;-39
2023/10/23 11:13:09;;;;;;;14.10;4.80;;;;;;;11.80;100.00;100944.84;7390226;19;20450;-38
2023/10/23 11:15:41;;;;;;;24.07;9.40;;;;;;;11.82;100.00;100947.50;7369040;19;20497;-40
2023/10/23 11:18:11;;;;;;;3.87;1.83;;;;;;;11.82;100.00;100947.50;7389329;19;20423;-38
2023/10/23 11:20:41;;;;;;;14.33;4.63;;;;;;;11.85;100.00;100945.03;7368588;19;20435;-41
2023/10/23 11:23:11;;;;;;;6.87;1.80;;;;;;;11.83;100.00;100949.25;7388683;19;20455;-39
2023/10/23 11:25:40;;;;;;;8.60;3.27;;;;;;;11.82;100.00;100945.81;7369115;19;20445;-42
2023/10/23 11:28:10;;;;;;;29.10;12.07;;;;;;;11.69;100.00;100948.72;7391161;19;20845;-41